Time;durP1;ratioP1;P1;durP2;ratioP2;P2;SDS_P1;SDS_P2;PMS_P1;PMS_P2;Temp;Humidity;BMP_temperature;BMP_pressure;BME280_temperature;BME280_humidity;BME280_pressure;Samples;Min_cycle;Max_cycle;Signal;HPM_P1;HPM_P2
2021/06/05 00:00:52;;;;;;;9.82;7.70;;;;;;;18.64;97.25;101007.38;5187141;28;20148;-78
2021/06/05 00:03:23;;;;;;;10.80;8.02;;;;;;;18.25;100.00;101000.03;5186043;28;20036;-79
2021/06/05 00:05:57;;;;;;;11.88;8.48;;;;;;;18.36;100.00;101002.06;5186907;28;20104;-78
2021/06/05 00:08:30;;;;;;;10.50;7.90;;;;;;;18.56;98.17;101004.34;5187202;28;20022;-79
2021/06/05 00:11:04;;;;;;;9.23;8.10;;;;;;;18.51;98.01;101004.63;5187083;28;20030;-79
2021/06/05 00:13:39;;;;;;;9.43;7.68;;;;;;;18.62;97.64;101001.31;5186625;28;20068;-79
2021/06/05 00:16:16;;;;;;;10.43;7.50;;;;;;;18.58;97.90;101007.75;5186521;28;20026;-79
2021/06/05 00:18:48;;;;;;;9.25;7.90;;;;;;;18.25;100.00;101000.03;5187301;28;20025;-79
2021/06/05 00:21:21;;;;;;;9.32;7.93;;;;;;;18.18;100.00;101003.16;5186583;28;20030;-79
2021/06/05 00:23:52;;;;;;;11.10;7.93;;;;;;;18.04;100.00;101001.31;5164477;28;20025;-79
2021/06/05 00:26:23;;;;;;;12.70;8.25;;;;;;;18.03;100.00;100998.75;5166145;28;20562;-79
2021/06/05 00:28:54;;;;;;;14.52;7.90;;;;;;;17.82;100.00;101002.69;5169329;28;20109;-79
2021/06/05 00:31:25;;;;;;;10.57;8.00;;;;;;;18.02;100.00;100995.25;5186225;28;20503;-79
2021/06/05 00:33:55;;;;;;;9.93;7.30;;;;;;;18.20;100.00;100994.16;5186763;28;20025;-79
2021/06/05 00:36:26;;;;;;;10.48;8.20;;;;;;;18.02;100.00;100994.41;5185941;28;20026;-79
2021/06/05 00:38:56;;;;;;;11.13;7.65;;;;;;;17.84;100.00;100991.06;5186232;28;20030;-79
2021/06/05 00:41:27;;;;;;;12.15;8.50;;;;;;;17.79;100.00;100990.47;5186500;28;20017;-79
2021/06/05 00:44:01;;;;;;;10.45;7.93;;;;;;;18.02;100.00;100992.59;5185877;28;20029;-79
2021/06/05 00:46:32;;;;;;;10.65;7.75;;;;;;;18.21;100.00;100987.09;5181539;28;20018;-79
2021/06/05 00:49:04;;;;;;;11.27;7.60;;;;;;;18.15;100.00;100992.75;5186147;28;20085;-79
2021/06/05 00:51:46;;;;;;;10.02;7.80;;;;;;;18.37;98.92;100991.38;5185816;28;20028;-79
2021/06/05 00:54:19;;;;;;;11.20;7.85;;;;;;;18.30;98.58;100986.53;5167888;28;20091;-79
2021/06/05 00:57:03;;;;;;;11.68;7.85;;;;;;;18.13;99.20;100989.31;5185773;28;20058;-79
2021/06/05 00:59:35;;;;;;;11.35;7.57;;;;;;;17.95;100.00;100982.47;5186007;28;20478;-79
2021/06/05 01:02:06;;;;;;;12.05;8.77;;;;;;;17.83;100.00;100989.34;5185006;28;20110;-78
2021/06/05 01:04:38;;;;;;;11.48;8.48;;;;;;;17.91;100.00;100975.66;5185836;28;20049;-79
2021/06/05 01:07:20;;;;;;;11.80;8.57;;;;;;;17.94;100.00;100984.28;5185225;28;20037;-79
2021/06/05 01:10:00;;;;;;;11.43;8.82;;;;;;;17.74;100.00;100974.03;5186186;28;20034;-79
2021/06/05 01:12:43;;;;;;;12.20;9.77;;;;;;;17.43;100.00;100975.88;5185775;28;20043;-79
2021/06/05 01:15:40;;;;;;;12.40;9.60;;;;;;;17.49;100.00;100963.16;5168971;28;20072;-79
2021/06/05 01:18:19;;;;;;;15.02;10.50;;;;;;;17.53;100.00;100953.28;5164093;28;20034;-79
2021/06/05 01:21:01;;;;;;;12.70;9.30;;;;;;;17.61;100.00;100953.66;5185992;28;20041;-79
2021/06/05 01:23:34;;;;;;;12.25;8.98;;;;;;;17.77;100.00;100951.81;5185999;28;20101;-79
2021/06/05 01:26:17;;;;;;;12.63;9.15;;;;;;;18.01;100.00;100945.09;5185524;28;20025;-79
2021/06/05 01:29:06;;;;;;;15.07;9.63;;;;;;;17.92;100.00;100943.00;5168641;28;20030;-79
2021/06/05 01:31:43;;;;;;;13.20;9.40;;;;;;;17.58;100.00;100952.06;5186338;28;20026;-79
2021/06/05 01:34:13;;;;;;;12.27;10.02;;;;;;;17.44;100.00;100948.50;5186002;28;20041;-79
2021/06/05 01:36:47;;;;;;;12.52;9.13;;;;;;;17.73;100.00;100942.38;5186142;28;20034;-79
2021/06/05 01:39:29;;;;;;;12.40;9.20;;;;;;;17.98;99.85;100940.00;5186522;28;20033;-79
2021/06/05 01:42:05;;;;;;;11.68;8.90;;;;;;;17.78;100.00;100942.94;5176260;28;20057;-79
2021/06/05 01:44:36;;;;;;;12.32;9.50;;;;;;;17.66;100.00;100948.97;5185741;28;20442;-79
2021/06/05 01:47:10;;;;;;;11.02;8.77;;;;;;;17.36;100.00;100953.38;5182233;28;20041;-78
2021/06/05 01:49:42;;;;;;;11.77;9.13;;;;;;;17.60;100.00;100946.69;5185824;28;20025;-79
2021/06/05 01:52:21;;;;;;;12.38;9.73;;;;;;;17.27;100.00;100954.72;5185452;28;20033;-79
2021/06/05 01:55:01;;;;;;;11.40;9.32;;;;;;;17.38;100.00;100946.22;5185667;28;20034;-79
2021/06/05 01:57:34;;;;;;;12.95;9.98;;;;;;;17.15;100.00;100950.13;5185729;28;20054;-79
2021/06/05 02:00:19;;;;;;;14.40;10.40;;;;;;;17.08;100.00;100950.56;5185133;28;20029;-79
2021/06/05 02:02:49;;;;;;;17.75;10.95;;;;;;;17.06;100.00;100948.03;5186111;28;20657;-79
2021/06/05 02:05:22;;;;;;;12.68;10.45;;;;;;;17.19;100.00;100949.06;5184861;28;20086;-79
2021/06/05 02:07:53;;;;;;;17.63;11.60;;;;;;;17.28;100.00;100939.75;5185981;28;20053;-79
2021/06/05 02:10:27;;;;;;;12.32;10.52;;;;;;;17.50;100.00;100950.81;5185959;28;20057;-79
2021/06/05 02:12:58;;;;;;;13.45;10.10;;;;;;;17.57;100.00;100941.56;5184709;28;20026;-79
2021/06/05 02:15:34;;;;;;;12.63;10.50;;;;;;;17.47;100.00;100951.00;5185506;28;20029;-79
2021/06/05 02:18:09;;;;;;;12.63;10.35;;;;;;;17.17;100.00;100947.41;5186037;28;20121;-79
2021/06/05 02:20:50;;;;;;;11.75;10.50;;;;;;;17.23;100.00;100947.06;5164973;28;20030;-79
2021/06/05 02:23:29;;;;;;;11.93;9.93;;;;;;;17.56;100.00;100934.59;5185995;28;20083;-79
2021/06/05 02:26:00;;;;;;;16.33;9.80;;;;;;;17.70;100.00;100930.22;5185215;28;20029;-79
2021/06/05 02:28:31;;;;;;;14.00;9.38;;;;;;;17.66;100.00;100936.59;5184930;28;20018;-79
2021/06/05 02:31:04;;;;;;;12.88;9.10;;;;;;;17.51;100.00;100937.50;5184766;28;20022;-79
2021/06/05 02:33:37;;;;;;;13.57;9.55;;;;;;;17.50;100.00;100940.25;5185151;28;20026;-79
2021/06/05 02:36:11;;;;;;;10.27;8.98;;;;;;;17.40;100.00;100945.22;5158102;28;20029;-79
2021/06/05 02:38:46;;;;;;;11.80;9.23;;;;;;;17.29;100.00;100946.72;5185553;28;20026;-79
2021/06/05 02:41:19;;;;;;;13.45;9.40;;;;;;;17.30;100.00;100949.28;5167174;28;20022;-79
2021/06/05 02:43:52;;;;;;;11.70;9.68;;;;;;;17.13;100.00;100945.91;5184895;28;20083;-79
2021/06/05 02:46:35;;;;;;;10.05;9.00;;;;;;;16.92;100.00;100942.66;5185079;28;20101;-79
2021/06/05 02:49:16;;;;;;;11.68;10.32;;;;;;;16.79;100.00;100946.06;5185276;28;20022;-78
2021/06/05 02:51:52;;;;;;;14.73;10.75;;;;;;;16.90;100.00;100943.66;5183324;28;20026;-79
2021/06/05 02:54:24;;;;;;;19.15;11.45;;;;;;;16.84;100.00;100947.50;5185465;28;20483;-79
2021/06/05 02:56:55;;;;;;;12.65;10.98;;;;;;;16.86;100.00;100950.06;5185223;28;20117;-79
2021/06/05 02:59:26;;;;;;;16.52;12.27;;;;;;;16.73;100.00;100956.94;5175587;28;20018;-79
2021/06/05 03:01:56;;;;;;;12.75;10.90;;;;;;;16.80;100.00;100953.88;5184958;28;20484;-79
2021/06/05 03:04:26;;;;;;;11.48;10.05;;;;;;;16.88;100.00;100958.75;5167453;28;20080;-79
2021/06/05 03:06:57;;;;;;;15.43;9.63;;;;;;;16.76;100.00;100948.03;5184210;28;20466;-79
2021/06/05 03:09:27;;;;;;;11.85;9.48;;;;;;;16.77;100.00;100947.94;5184622;28;20114;-79
2021/06/05 03:11:57;;;;;;;13.50;9.20;;;;;;;16.73;100.00;100945.56;5166472;28;20029;-79
2021/06/05 03:14:27;;;;;;;20.13;11.85;;;;;;;16.79;100.00;100957.47;5184983;28;20698;-79
2021/06/05 03:16:59;;;;;;;13.80;11.13;;;;;;;16.61;100.00;100957.63;5167334;28;20032;-79
2021/06/05 03:19:29;;;;;;;16.70;10.63;;;;;;;16.79;100.00;100954.00;5185417;28;20115;-79
2021/06/05 03:21:59;;;;;;;18.67;11.80;;;;;;;16.77;100.00;100947.94;5184339;28;20057;-79
2021/06/05 03:24:30;;;;;;;13.20;10.15;;;;;;;16.81;100.00;100949.47;5185081;28;20052;-79
2021/06/05 03:27:01;;;;;;;15.00;10.77;;;;;;;16.93;100.00;100954.91;5187125;28;20017;-79
2021/06/05 03:29:31;;;;;;;19.10;11.35;;;;;;;16.69;100.00;100954.59;5189335;28;20037;-79
2021/06/05 03:32:02;;;;;;;12.52;10.90;;;;;;;16.93;100.00;100947.00;5189515;28;20025;-79
2021/06/05 03:34:32;;;;;;;12.65;10.32;;;;;;;17.12;100.00;100954.75;5188488;28;20037;-80
2021/06/05 03:37:07;;;;;;;12.18;10.55;;;;;;;17.22;100.00;100958.56;5188750;28;20026;-79
2021/06/05 03:39:37;;;;;;;15.82;10.85;;;;;;;17.00;100.00;100955.44;5189576;28;20527;-79
2021/06/05 03:42:09;;;;;;;12.05;10.60;;;;;;;17.26;100.00;100949.53;5170556;28;20033;-79
2021/06/05 03:44:42;;;;;;;15.88;10.18;;;;;;;17.24;100.00;100954.03;5173970;28;20041;-79
2021/06/05 03:47:12;;;;;;;11.57;10.38;;;;;;;17.14;100.00;100948.44;5188580;28;20144;-79
2021/06/05 03:49:43;;;;;;;14.27;11.48;;;;;;;16.95;100.00;100944.28;5188957;28;20049;-79
2021/06/05 03:52:13;;;;;;;18.35;12.90;;;;;;;16.66;100.00;100946.81;5188408;28;20278;-79
2021/06/05 03:54:43;;;;;;;15.75;10.93;;;;;;;17.14;100.00;100943.16;5189209;28;20133;-79
2021/06/05 03:57:13;;;;;;;12.87;10.50;;;;;;;17.38;100.00;100940.94;5171364;28;20121;-79
2021/06/05 03:59:44;;;;;;;12.98;10.75;;;;;;;17.74;100.00;100952.00;5170843;28;20277;-79
2021/06/05 04:02:14;;;;;;;16.13;10.68;;;;;;;17.42;100.00;100948.59;5188387;28;20065;-79
2021/06/05 04:04:45;;;;;;;11.88;9.93;;;;;;;17.63;100.00;100947.34;5189021;28;20033;-79
2021/06/05 04:07:17;;;;;;;11.55;10.02;;;;;;;17.44;100.00;100944.09;5189172;28;20021;-79
2021/06/05 04:09:48;;;;;;;11.32;10.20;;;;;;;17.44;100.00;100946.72;5188555;28;20108;-79
2021/06/05 04:12:18;;;;;;;12.98;10.65;;;;;;;17.72;100.00;100938.91;5187505;28;20591;-79
2021/06/05 04:14:48;;;;;;;12.50;10.50;;;;;;;18.00;100.00;100940.75;5173598;28;20033;-79
2021/06/05 04:17:18;;;;;;;17.75;11.23;;;;;;;18.18;100.00;100939.66;5170308;28;20484;-79
2021/06/05 04:19:49;;;;;;;17.93;11.53;;;;;;;18.33;99.82;100929.00;5188380;28;20091;-79
2021/06/05 04:22:20;;;;;;;16.95;12.18;;;;;;;18.51;97.78;100932.31;5186625;28;21084;-79
2021/06/05 04:24:50;;;;;;;16.60;12.18;;;;;;;18.65;97.67;100934.94;5187908;28;20060;-79
2021/06/05 04:27:20;;;;;;;14.82;11.88;;;;;;;18.88;96.95;100936.03;5168387;28;20061;-79
2021/06/05 04:29:51;;;;;;;18.10;11.07;;;;;;;18.90;95.98;100936.78;5186856;28;20033;-80
2021/06/05 04:32:21;;;;;;;13.02;10.82;;;;;;;19.54;94.11;100936.13;5170437;28;20044;-79
2021/06/05 04:34:52;;;;;;;14.43;10.10;;;;;;;20.08;91.11;100940.38;5187526;28;20058;-79
2021/06/05 04:37:22;;;;;;;15.57;10.52;;;;;;;21.24;86.08;100942.53;5169810;28;20076;-80
2021/06/05 04:39:52;;;;;;;14.27;9.32;;;;;;;21.95;83.69;100934.53;5187430;28;20037;-79
2021/06/05 04:42:23;;;;;;;12.80;9.20;;;;;;;22.89;79.83;100926.97;5187808;28;20025;-79
2021/06/05 04:44:53;;;;;;;11.15;9.45;;;;;;;24.06;73.76;100935.78;5186336;28;20279;-79
2021/06/05 04:47:23;;;;;;;17.67;10.15;;;;;;;23.68;74.44;100927.47;5187505;28;20033;-80
2021/06/05 04:49:53;;;;;;;13.93;9.48;;;;;;;24.35;72.86;100918.09;5171136;28;20040;-80
2021/06/05 04:52:24;;;;;;;16.87;9.93;;;;;;;22.84;77.77;100932.66;5187273;28;20042;-79
2021/06/05 04:54:54;;;;;;;12.32;9.50;;;;;;;22.12;81.79;100926.91;5187420;28;20383;-79
2021/06/05 04:57:25;;;;;;;19.42;10.70;;;;;;;21.15;84.55;100931.72;5187165;28;20667;-79
2021/06/05 04:59:55;;;;;;;14.73;10.82;;;;;;;20.54;89.77;100926.47;5187402;28;20084;-79
2021/06/05 05:02:25;;;;;;;16.25;10.98;;;;;;;20.59;89.31;100929.63;5186933;28;20040;-79
2021/06/05 05:04:56;;;;;;;14.40;11.68;;;;;;;20.93;87.48;100926.28;5187683;28;20033;-79
2021/06/05 05:07:26;;;;;;;14.43;10.80;;;;;;;20.85;88.84;100928.63;5186618;28;20057;-79
2021/06/05 05:09:56;;;;;;;14.37;11.73;;;;;;;20.69;89.83;100930.69;5186421;28;20022;-79
2021/06/05 05:12:27;;;;;;;15.82;12.80;;;;;;;19.92;93.30;100942.38;5186939;28;20275;-79
2021/06/05 05:14:57;;;;;;;15.35;12.00;;;;;;;19.75;96.04;100943.50;5185618;28;20061;-78
2021/06/05 05:17:27;;;;;;;14.02;12.35;;;;;;;20.12;90.98;100937.41;5186194;28;20514;-79
2021/06/05 05:19:58;;;;;;;16.77;12.13;;;;;;;20.14;93.63;100938.16;5169269;28;20033;-79
2021/06/05 05:22:28;;;;;;;16.73;12.47;;;;;;;19.97;93.31;100949.03;5167170;28;20630;-79
2021/06/05 05:24:58;;;;;;;15.27;13.27;;;;;;;19.95;93.56;100943.00;5186980;28;20371;-79
2021/06/05 05:27:29;;;;;;;14.85;11.93;;;;;;;19.99;94.78;100941.81;5185836;28;20313;-79
2021/06/05 05:29:59;;;;;;;14.23;11.50;;;;;;;20.38;93.32;100943.56;5186801;28;20037;-79
2021/06/05 05:32:30;;;;;;;13.90;11.85;;;;;;;20.94;90.55;100939.47;5186320;28;20076;-79
2021/06/05 05:35:01;;;;;;;14.57;11.70;;;;;;;21.26;89.07;100943.28;5186473;28;20033;-79
2021/06/05 05:37:31;;;;;;;15.88;11.45;;;;;;;21.23;89.02;100940.84;5169002;28;20061;-79
2021/06/05 05:40:04;;;;;;;16.13;12.35;;;;;;;20.75;90.00;100944.34;5185935;28;20050;-79
2021/06/05 05:42:34;;;;;;;18.65;12.57;;;;;;;20.90;89.69;100947.78;5186374;28;20041;-79
2021/06/05 05:45:06;;;;;;;16.75;11.63;;;;;;;21.26;89.89;100943.28;5186375;28;20034;-79
2021/06/05 05:47:37;;;;;;;16.42;11.45;;;;;;;21.34;88.70;100948.91;5178124;28;20033;-79
2021/06/05 05:50:10;;;;;;;15.60;11.70;;;;;;;21.75;87.77;100949.34;5185505;28;20026;-79
2021/06/05 05:52:40;;;;;;;15.60;12.60;;;;;;;21.95;86.96;100939.84;5185614;28;20029;-79
2021/06/05 05:55:11;;;;;;;14.87;11.73;;;;;;;22.21;85.50;100954.66;5186650;28;20566;-79
2021/06/05 05:57:42;;;;;;;14.55;12.43;;;;;;;21.23;88.41;100955.97;5185802;28;20404;-79
2021/06/05 06:00:17;;;;;;;18.00;12.75;;;;;;;21.11;89.92;100962.16;5168570;28;20022;-79
2021/06/05 06:02:48;;;;;;;16.42;12.82;;;;;;;21.37;88.13;100958.47;5168658;28;20578;-79
2021/06/05 06:05:18;;;;;;;14.27;11.93;;;;;;;21.54;86.55;100953.56;5185739;28;20068;-79
2021/06/05 06:07:49;;;;;;;17.90;13.38;;;;;;;20.85;91.50;100966.69;5185199;28;20121;-78
2021/06/05 06:10:21;;;;;;;15.40;11.90;;;;;;;21.33;89.17;100956.97;5185277;28;20751;-79
2021/06/05 06:12:52;;;;;;;14.93;12.90;;;;;;;21.30;88.87;100974.03;5187084;28;20057;-80
2021/06/05 06:15:26;;;;;;;13.90;12.10;;;;;;;21.30;91.43;100973.16;5187811;28;20034;-81
2021/06/05 06:17:57;;;;;;;18.17;12.90;;;;;;;21.34;91.20;100969.31;5188339;28;20048;-78
2021/06/05 06:20:42;;;;;;;16.65;13.00;;;;;;;21.68;89.65;100968.53;5169142;28;20506;-81
2021/06/05 06:23:20;;;;;;;17.73;13.60;;;;;;;21.61;89.10;100965.44;5187456;28;20018;-81
2021/06/05 06:25:52;;;;;;;15.80;13.18;;;;;;;21.66;88.90;100967.81;5188896;28;20422;-77
2021/06/05 06:28:26;;;;;;;17.25;13.20;;;;;;;21.74;89.35;100962.78;5171269;28;20029;-82
2021/06/05 06:30:58;;;;;;;17.13;13.57;;;;;;;21.85;89.97;100966.31;5183192;28;20484;-82
2021/06/05 06:33:29;;;;;;;20.08;13.93;;;;;;;21.56;92.29;100956.13;5186542;28;20025;-81
2021/06/05 06:36:00;;;;;;;16.15;14.43;;;;;;;21.86;89.37;100951.19;5185472;28;20052;-78
2021/06/05 06:38:36;;;;;;;16.88;14.68;;;;;;;21.51;92.88;100958.28;5187292;28;20021;-80
2021/06/05 06:41:12;;;;;;;17.23;14.13;;;;;;;22.12;87.31;100963.38;5165921;28;20467;-79
2021/06/05 06:43:42;;;;;;;17.73;13.95;;;;;;;22.48;87.50;100965.88;5163701;28;20068;-80
2021/06/05 06:46:21;;;;;;;17.30;14.52;;;;;;;22.17;89.81;100961.19;5186200;28;20021;-81
2021/06/05 06:48:54;;;;;;;19.05;14.75;;;;;;;22.23;89.98;100960.72;5168552;28;20097;-78
2021/06/05 06:51:25;;;;;;;18.70;14.93;;;;;;;22.49;90.34;100972.88;5172247;28;20034;-81
2021/06/05 06:53:57;;;;;;;16.13;14.40;;;;;;;22.32;90.08;100968.00;5167171;28;20037;-79
2021/06/05 06:56:27;;;;;;;20.75;16.05;;;;;;;22.28;91.55;100970.03;5166237;28;20032;-80
2021/06/05 06:58:57;;;;;;;18.88;16.42;;;;;;;22.26;91.64;100961.31;5185154;28;20112;-81
2021/06/05 07:01:28;;;;;;;19.05;16.90;;;;;;;22.31;92.26;100959.16;5181230;28;20033;-82
2021/06/05 07:03:58;;;;;;;18.55;16.27;;;;;;;21.98;94.50;100967.09;5165606;28;20116;-78
2021/06/05 07:06:29;;;;;;;18.15;16.25;;;;;;;22.43;91.06;100957.41;5184676;28;20013;-80
2021/06/05 07:08:59;;;;;;;20.20;16.25;;;;;;;22.58;90.67;100950.88;5183219;28;20608;-78
2021/06/05 07:11:32;;;;;;;19.00;15.93;;;;;;;22.39;93.10;100950.63;5165024;28;20527;-81
2021/06/05 07:14:05;;;;;;;17.95;15.80;;;;;;;22.15;94.66;100963.13;5180928;28;20126;-78
2021/06/05 07:16:37;;;;;;;21.90;16.95;;;;;;;22.04;93.01;100965.75;5172503;28;20034;-80
2021/06/05 07:19:08;;;;;;;18.20;16.25;;;;;;;22.43;91.29;100960.06;5166862;28;20026;-81
2021/06/05 07:21:38;;;;;;;17.95;15.95;;;;;;;22.59;92.03;100957.88;5184850;28;20391;-81
2021/06/05 07:24:09;;;;;;;21.20;16.70;;;;;;;22.21;91.54;100963.50;5164537;28;20040;-78
2021/06/05 07:26:40;;;;;;;22.70;17.40;;;;;;;22.35;90.94;100955.28;5164017;28;21018;-82
2021/06/05 07:29:12;;;;;;;19.58;17.45;;;;;;;21.97;94.62;100953.88;5161539;28;20387;-81
2021/06/05 07:31:47;;;;;;;18.85;16.52;;;;;;;22.28;93.07;100953.22;5163690;28;20022;-80
2021/06/05 07:34:23;;;;;;;18.52;16.55;;;;;;;22.35;91.23;100970.41;5183229;28;20056;-79
2021/06/05 07:36:56;;;;;;;18.77;16.50;;;;;;;22.40;93.70;100965.63;5163243;28;20038;-79
2021/06/05 07:39:28;;;;;;;19.60;15.35;;;;;;;22.55;92.60;100961.75;5177183;28;20038;-82
2021/06/05 07:41:59;;;;;;;19.38;16.20;;;;;;;22.49;93.22;100967.56;5182066;28;20029;-77
2021/06/05 07:44:31;;;;;;;23.10;17.38;;;;;;;22.53;92.26;100966.34;5163081;28;20033;-80
2021/06/05 07:47:04;;;;;;;18.65;15.15;;;;;;;22.50;89.95;100963.94;5183347;28;20037;-80
2021/06/05 07:49:37;;;;;;;21.35;16.50;;;;;;;22.69;90.94;100959.69;5181634;28;20034;-80
2021/06/05 07:52:11;;;;;;;19.50;15.52;;;;;;;22.96;89.46;100963.69;5181848;28;20049;-82
2021/06/05 07:54:42;;;;;;;19.00;15.82;;;;;;;22.83;91.03;100962.94;5162955;28;20407;-78
2021/06/05 07:57:12;;;;;;;19.85;16.83;;;;;;;22.97;90.08;100956.50;5182643;28;20025;-80
2021/06/05 07:59:42;;;;;;;19.50;15.60;;;;;;;23.18;89.94;100949.50;5182479;28;20029;-80
2021/06/05 08:02:14;;;;;;;18.10;16.20;;;;;;;23.29;88.34;100955.63;5181599;28;20276;-82
2021/06/05 08:04:45;;;;;;;18.30;15.57;;;;;;;22.92;90.48;100958.69;5179033;28;20323;-80
2021/06/05 08:07:16;;;;;;;19.88;17.65;;;;;;;22.86;90.67;100944.03;5165440;28;20023;-80
2021/06/05 08:09:46;;;;;;;17.80;15.90;;;;;;;23.28;87.34;100948.59;5163857;28;20029;-81
2021/06/05 08:12:17;;;;;;;18.95;15.68;;;;;;;23.80;85.91;100950.44;5181946;28;20710;-82
2021/06/05 08:14:47;;;;;;;19.37;17.47;;;;;;;23.23;87.82;100945.44;5166698;28;20858;-82
2021/06/05 08:17:17;;;;;;;18.73;16.10;;;;;;;23.67;88.34;100947.97;5168897;28;20326;-81
2021/06/05 08:19:48;;;;;;;20.02;15.85;;;;;;;23.80;86.35;100945.97;5183328;28;20045;-80
2021/06/05 08:22:23;;;;;;;18.45;16.38;;;;;;;23.67;88.14;100953.31;5165857;28;20053;-80
2021/06/05 08:24:54;;;;;;;18.63;15.60;;;;;;;23.94;86.34;100947.50;5182409;28;20025;-81
2021/06/05 08:27:25;;;;;;;20.60;16.10;;;;;;;23.89;86.06;100949.72;5168795;28;20492;-81
2021/06/05 08:29:55;;;;;;;18.13;15.82;;;;;;;23.64;86.88;100950.91;5170147;28;20034;-80
2021/06/05 08:32:26;;;;;;;21.42;16.20;;;;;;;24.16;83.65;100956.25;5187086;28;20033;-80
2021/06/05 08:34:56;;;;;;;16.58;14.77;;;;;;;24.22;85.08;100946.84;5188105;28;20040;-82
2021/06/05 08:37:27;;;;;;;21.37;15.73;;;;;;;23.96;85.23;100946.41;5169856;28;20030;-82
2021/06/05 08:39:57;;;;;;;15.63;13.95;;;;;;;23.97;85.46;100945.44;5169155;28;20265;-78
2021/06/05 08:42:36;;;;;;;18.02;16.20;;;;;;;23.71;88.14;100949.41;5170612;28;20017;-81
2021/06/05 08:45:09;;;;;;;20.08;16.63;;;;;;;23.55;89.16;100946.31;5186564;28;20081;-81
2021/06/05 08:47:40;;;;;;;19.17;16.20;;;;;;;24.15;85.97;100949.19;5188451;28;20021;-79
2021/06/05 08:50:20;;;;;;;19.70;17.52;;;;;;;23.34;89.92;100948.09;5187629;28;20109;-82
2021/06/05 08:52:59;;;;;;;20.30;17.13;;;;;;;23.71;89.46;100949.41;5188144;28;20040;-80
2021/06/05 08:55:39;;;;;;;28.40;19.50;;;;;;;23.43;92.52;100949.16;5185547;28;20050;-80
2021/06/05 08:58:30;;;;;;;20.35;15.88;;;;;;;23.59;89.61;100947.78;5186136;28;20170;-82
2021/06/05 09:01:12;;;;;;;25.20;19.25;;;;;;;23.53;91.02;100953.59;5186631;28;20022;-80
2021/06/05 09:03:43;;;;;;;22.25;18.63;;;;;;;23.90;89.43;100951.41;5182969;28;20092;-81
2021/06/05 09:06:34;;;;;;;22.05;16.98;;;;;;;23.92;89.71;100953.00;5169882;28;20231;-80
2021/06/05 09:09:12;;;;;;;25.83;18.55;;;;;;;23.81;89.33;100953.00;5170638;28;20061;-81
2021/06/05 09:11:42;;;;;;;20.00;17.50;;;;;;;23.46;91.35;100951.56;5174874;28;20582;-80
2021/06/05 09:14:13;;;;;;;23.02;17.13;;;;;;;23.46;89.62;100956.91;5171801;28;20022;-81
2021/06/05 09:16:47;;;;;;;19.00;17.00;;;;;;;23.26;91.55;100949.69;5169760;28;20026;-82
2021/06/05 09:19:26;;;;;;;22.10;17.65;;;;;;;23.63;89.59;100961.69;5187437;28;20029;-81
2021/06/05 09:22:06;;;;;;;58.80;28.77;;;;;;;24.00;89.89;100946.97;5169354;28;20492;-81
2021/06/05 09:24:36;;;;;;;28.08;20.73;;;;;;;23.35;92.13;100954.28;5181344;28;20112;-81
2021/06/05 09:27:18;;;;;;;21.00;17.03;;;;;;;23.81;88.03;100953.00;5161808;28;20113;-80
2021/06/05 09:29:50;;;;;;;23.40;18.02;;;;;;;23.67;88.01;100953.31;5186944;28;20030;-80
2021/06/05 09:32:30;;;;;;;22.35;17.35;;;;;;;23.95;89.27;100950.06;5170065;28;20018;-81
2021/06/05 09:35:08;;;;;;;27.75;19.92;;;;;;;23.72;90.51;100959.09;5169981;28;20026;-82
2021/06/05 09:37:46;;;;;;;17.77;15.98;;;;;;;23.86;91.24;100958.00;5182683;28;20034;-80
2021/06/05 09:40:19;;;;;;;22.98;18.23;;;;;;;24.32;90.36;100958.44;5186656;28;20096;-82
2021/06/05 09:42:51;;;;;;;20.77;16.65;;;;;;;24.20;91.60;100955.00;5185989;28;20665;-79
2021/06/05 09:45:37;;;;;;;19.63;17.10;;;;;;;24.51;89.65;100962.06;5169894;28;20030;-82
2021/06/05 09:48:23;;;;;;;21.60;17.97;;;;;;;24.30;88.05;100950.56;5185062;28;20029;-80
2021/06/05 09:50:56;;;;;;;18.17;16.23;;;;;;;24.67;84.83;100947.22;5164640;28;20069;-80
2021/06/05 09:53:37;;;;;;;17.95;15.82;;;;;;;24.58;85.42;100944.53;5169086;28;20049;-82
2021/06/05 09:56:10;;;;;;;18.10;15.32;;;;;;;25.07;86.02;100941.88;5165562;28;20053;-80
2021/06/05 09:58:44;;;;;;;22.05;16.05;;;;;;;25.41;82.72;100946.78;5168981;28;20021;-81
2021/06/05 10:01:21;;;;;;;16.65;13.88;;;;;;;25.26;81.97;100948.16;5171539;28;20050;-82
2021/06/05 10:03:55;;;;;;;17.42;13.63;;;;;;;25.94;80.31;100940.03;5168257;28;20170;-81
2021/06/05 10:06:45;;;;;;;20.10;16.65;;;;;;;24.98;83.04;100948.06;5168810;28;20151;-80
2021/06/05 10:09:18;;;;;;;18.13;13.93;;;;;;;25.94;82.12;100939.16;5182553;28;20048;-81
2021/06/05 10:11:51;;;;;;;19.08;14.85;;;;;;;25.57;83.28;100940.84;5160531;28;20037;-82
2021/06/05 10:14:33;;;;;;;15.20;13.60;;;;;;;25.89;80.29;100933.41;5184371;28;20458;-81
2021/06/05 10:17:30;;;;;;;15.55;13.82;;;;;;;26.15;82.37;100938.00;5185994;28;20065;-82
2021/06/05 10:20:15;;;;;;;17.30;14.02;;;;;;;25.46;82.19;100938.34;5184389;28;20523;-79
2021/06/05 10:22:49;;;;;;;18.77;15.13;;;;;;;25.62;81.94;100926.06;5184970;28;20128;-79
2021/06/05 10:25:38;;;;;;;17.85;15.05;;;;;;;25.30;84.06;100924.66;5166422;28;20032;-80
2021/06/05 10:28:33;;;;;;;15.95;13.85;;;;;;;25.84;80.58;100923.09;5168344;28;20034;-78
2021/06/05 10:31:08;;;;;;;17.05;15.25;;;;;;;25.08;83.25;100919.50;5174009;28;20048;-81
2021/06/05 10:33:44;;;;;;;13.88;12.45;;;;;;;25.84;83.54;100914.22;5163295;28;20523;-81
2021/06/05 10:36:21;;;;;;;;;;;;;;;26.11;81.98;100912.50;5166155;28;20403;-81
2021/06/05 10:39:00;;;;;;;19.77;14.38;;;;;;;26.95;80.02;100906.94;5185595;28;19920;-81
2021/06/05 10:41:34;;;;;;;17.95;13.90;;;;;;;26.83;79.07;100906.31;5168445;28;20025;-79
2021/06/05 10:44:06;;;;;;;17.98;13.68;;;;;;;27.31;78.07;100906.84;5181649;28;20021;-79
2021/06/05 10:46:59;;;;;;;14.93;13.40;;;;;;;27.96;73.81;100911.81;5184062;28;20025;-81
2021/06/05 10:49:35;;;;;;;15.15;11.25;;;;;;;27.67;76.47;100905.88;5183234;28;20053;-82
2021/06/05 10:52:08;;;;;;;17.55;13.00;;;;;;;28.04;74.83;100909.19;5184338;28;20034;-81
2021/06/05 10:54:48;;;;;;;15.18;12.10;;;;;;;27.59;77.08;100902.25;5182398;28;20032;-81
2021/06/05 10:57:18;;;;;;;14.93;12.00;;;;;;;27.67;75.35;100905.00;5182508;28;20038;-80
2021/06/05 11:00:10;;;;;;;12.03;10.00;;;;;;;27.65;75.02;100897.09;5164292;28;20026;-81
2021/06/05 11:02:49;;;;;;;12.43;11.18;;;;;;;27.77;80.70;100890.50;5165261;28;20117;-80
2021/06/05 11:05:32;;;;;;;13.43;12.02;;;;;;;27.43;75.97;100889.50;5180196;28;20403;-80
2021/06/05 11:08:08;;;;;;;12.93;10.52;;;;;;;26.97;78.27;100887.00;5184246;28;20033;-78
2021/06/05 11:10:49;;;;;;;10.80;8.88;;;;;;;27.00;79.00;100889.41;5182456;28;20033;-79
2021/06/05 11:13:31;;;;;;;10.85;8.73;;;;;;;26.77;78.39;100890.78;5165980;28;20037;-82
2021/06/05 11:16:08;;;;;;;12.70;9.75;;;;;;;26.55;79.06;100892.19;5165374;28;20448;-80
2021/06/05 11:18:43;;;;;;;9.73;8.35;;;;;;;26.80;79.60;100887.81;5164234;28;20021;-82
2021/06/05 11:21:23;;;;;;;9.43;7.97;;;;;;;26.82;81.24;100883.16;5167647;28;20026;-79
2021/06/05 11:23:56;;;;;;;10.85;7.32;;;;;;;26.25;82.95;100887.91;5185445;28;20026;-81
2021/06/05 11:26:38;;;;;;;7.68;6.88;;;;;;;26.08;84.59;100885.13;5185696;28;20049;-82
2021/06/05 11:29:20;;;;;;;7.55;6.20;;;;;;;25.81;85.52;100882.34;5166979;28;20030;-79
2021/06/05 11:31:52;;;;;;;7.90;6.22;;;;;;;25.99;83.59;100883.34;5167307;28;20030;-81
2021/06/05 11:34:28;;;;;;;8.38;6.68;;;;;;;25.86;84.89;100885.47;5167422;28;20392;-80
2021/06/05 11:37:18;;;;;;;6.88;5.82;;;;;;;26.02;84.46;100886.53;5162074;28;20546;-80
2021/06/05 11:39:58;;;;;;;7.68;6.50;;;;;;;25.90;84.05;100895.75;5166564;28;20045;-80